Time;durP1;ratioP1;P1;durP2;ratioP2;P2;SDS_P1;SDS_P2;PMS_P1;PMS_P2;Temp;Humidity;BMP_temperature;BMP_pressure;BME280_temperature;BME280_humidity;BME280_pressure;Samples;Min_cycle;Max_cycle;Signal;HPM_P1;HPM_P2
2023/02/03 00:00:07;;;;;;;1999.90;999.90;;;;;;;3.18;100.00;98815.47;5070473;28;20124;-78
2023/02/03 00:02:33;;;;;;;1999.90;999.90;;;;;;;3.15;100.00;98810.50;5070490;28;20056;-75
2023/02/03 00:04:58;;;;;;;1999.90;999.90;;;;;;;3.15;100.00;98809.69;5070427;28;20439;-78
2023/02/03 00:07:23;;;;;;;1999.90;999.90;;;;;;;3.17;100.00;98799.44;5070733;28;20029;-76
2023/02/03 00:09:49;;;;;;;1999.90;999.90;;;;;;;3.28;100.00;98804.13;5070280;28;20060;-77
2023/02/03 00:12:14;;;;;;;1999.90;999.90;;;;;;;3.28;100.00;98808.69;5070549;28;20435;-77
2023/02/03 00:14:40;;;;;;;1999.90;999.90;;;;;;;3.14;100.00;98797.22;5070504;28;20035;-77
2023/02/03 00:17:05;;;;;;;1999.90;999.90;;;;;;;3.04;100.00;98805.84;5070384;28;20099;-76
2023/02/03 00:19:31;;;;;;;1999.90;999.90;;;;;;;2.99;100.00;98810.28;5070019;28;20108;-76
2023/02/03 00:21:57;;;;;;;1999.90;999.90;;;;;;;2.90;100.00;98798.97;5070340;28;20083;-77
2023/02/03 00:24:23;;;;;;;1999.90;999.90;;;;;;;2.85;100.00;98801.50;5069987;28;20040;-76
2023/02/03 00:26:48;;;;;;;1999.90;999.90;;;;;;;2.84;100.00;98813.38;5070199;28;20021;-77
2023/02/03 00:29:14;;;;;;;1999.90;999.90;;;;;;;2.87;100.00;98809.38;5070080;28;20066;-76
2023/02/03 00:31:39;;;;;;;1999.90;999.90;;;;;;;2.90;100.00;98811.63;5070147;28;20432;-75
2023/02/03 00:34:05;;;;;;;1999.90;999.90;;;;;;;2.94;100.00;98810.97;5069952;28;20028;-76
2023/02/03 00:36:30;;;;;;;1999.90;999.90;;;;;;;3.09;100.00;98800.59;5069871;28;20052;-76
2023/02/03 00:38:56;;;;;;;1999.90;999.90;;;;;;;3.03;100.00;98796.09;5070185;28;20437;-78
2023/02/03 00:41:22;;;;;;;1999.90;999.90;;;;;;;3.11;100.00;98808.47;5069657;28;20028;-78
2023/02/03 00:43:48;;;;;;;1999.90;999.90;;;;;;;3.02;100.00;98810.66;5069902;28;20040;-76
2023/02/03 00:46:14;;;;;;;1999.90;999.90;;;;;;;2.91;100.00;98808.72;5070032;28;20473;-77
2023/02/03 00:48:39;;;;;;;1999.90;999.90;;;;;;;2.89;100.00;98809.97;5074916;28;20824;-77
2023/02/03 00:51:05;;;;;;;1999.90;999.90;;;;;;;2.93;100.00;98816.59;5076520;28;20454;-76
2023/02/03 00:53:30;;;;;;;1999.90;999.90;;;;;;;2.84;100.00;98821.47;5076242;28;20456;-75
2023/02/03 00:55:56;;;;;;;1999.90;999.90;;;;;;;2.94;100.00;98815.53;5074883;28;20115;-77
2023/02/03 00:58:21;;;;;;;1999.90;999.90;;;;;;;3.02;100.00;98809.84;5073285;28;20481;-77
2023/02/03 01:00:46;;;;;;;1999.90;999.90;;;;;;;3.10;100.00;98820.34;5073141;28;20070;-78
2023/02/03 01:03:12;;;;;;;1999.90;999.90;;;;;;;3.11;100.00;98809.31;5073206;28;20024;-78
2023/02/03 01:05:37;;;;;;;1999.90;999.90;;;;;;;3.07;100.00;98818.91;5073014;28;20095;-79
2023/02/03 01:08:03;;;;;;;1999.90;999.90;;;;;;;2.99;100.00;98805.72;5073479;28;20378;-78
2023/02/03 01:10:29;;;;;;;1999.90;999.90;;;;;;;3.08;100.00;98815.16;5074986;28;20054;-80
2023/02/03 01:12:55;;;;;;;1999.90;999.90;;;;;;;3.04;100.00;98830.16;5077017;28;20043;-78
2023/02/03 01:15:21;;;;;;;1999.90;999.90;;;;;;;3.02;100.00;98826.88;5073649;28;20020;-78
2023/02/03 01:17:46;;;;;;;1999.90;999.90;;;;;;;3.06;100.00;98822.69;5073255;28;20031;-80
2023/02/03 01:20:12;;;;;;;1999.90;999.90;;;;;;;3.07;100.00;98818.91;5072891;28;20135;-78
2023/02/03 01:22:38;;;;;;;1999.90;999.90;;;;;;;3.04;100.00;98830.16;5072887;28;20396;-77
2023/02/03 01:25:04;;;;;;;1999.90;999.90;;;;;;;3.13;100.00;98823.41;5072877;28;20036;-77
2023/02/03 01:27:32;;;;;;;1999.90;999.90;;;;;;;3.15;100.00;98818.63;5072879;28;20028;-78
2023/02/03 01:29:58;;;;;;;1999.90;999.90;;;;;;;3.13;100.00;98830.72;5072637;28;20032;-76
2023/02/03 01:32:23;;;;;;;1999.90;999.90;;;;;;;3.15;100.00;98817.78;5072418;28;20020;-77
2023/02/03 01:34:49;;;;;;;1999.90;999.90;;;;;;;3.04;100.00;98823.94;5072604;28;20040;-80
2023/02/03 01:37:16;;;;;;;1999.90;999.90;;;;;;;3.03;100.00;98822.31;5072548;28;20016;-77
2023/02/03 01:39:41;;;;;;;1999.90;999.90;;;;;;;3.04;100.00;98813.94;5073090;28;20552;-79
2023/02/03 01:42:11;;;;;;;1999.90;999.90;;;;;;;2.99;100.00;98813.81;5072673;28;20067;-77
2023/02/03 01:44:50;;;;;;;1999.90;999.90;;;;;;;2.90;100.00;98808.94;5072285;28;20108;-78
2023/02/03 01:47:42;;;;;;;1999.90;999.90;;;;;;;2.68;100.00;98809.38;5072379;28;20534;-78
2023/02/03 01:50:10;;;;;;;1999.90;999.90;;;;;;;2.52;100.00;98807.25;5072043;28;20120;-77
2023/02/03 01:52:38;;;;;;;1999.90;999.90;;;;;;;2.38;100.00;98802.22;5072208;28;20812;-77
2023/02/03 01:55:07;;;;;;;1999.90;999.90;;;;;;;2.28;100.00;98807.28;5072268;28;20385;-77
2023/02/03 01:57:55;;;;;;;1999.90;999.90;;;;;;;2.12;100.00;98793.31;5072551;28;20032;-76
2023/02/03 02:00:20;;;;;;;1999.90;999.90;;;;;;;1.93;100.00;98796.16;5075100;28;20036;-77
2023/02/03 02:02:47;;;;;;;1999.90;999.90;;;;;;;1.86;100.00;98803.47;5071256;28;20032;-80
2023/02/03 02:05:24;;;;;;;1999.90;999.90;;;;;;;1.95;100.00;98810.25;5072148;28;20440;-79
2023/02/03 02:07:50;;;;;;;1999.90;999.90;;;;;;;1.78;100.00;98809.97;5071934;28;20029;-78
2023/02/03 02:10:15;;;;;;;1999.90;999.90;;;;;;;1.80;100.00;98815.13;5072099;28;20047;-78
2023/02/03 02:12:41;;;;;;;1999.90;999.90;;;;;;;1.68;100.00;98806.09;5071937;28;20032;-76
2023/02/03 02:15:07;;;;;;;1999.90;999.90;;;;;;;1.54;100.00;98805.31;5071600;28;20100;-79
2023/02/03 02:17:57;;;;;;;1999.90;999.90;;;;;;;1.52;100.00;98788.56;5071804;28;20020;-77
2023/02/03 02:20:43;;;;;;;1999.90;999.90;;;;;;;1.56;100.00;98787.09;5071356;28;20082;-78
2023/02/03 02:23:09;;;;;;;1999.90;999.90;;;;;;;1.47;100.00;98783.81;5071432;28;20036;-77
2023/02/03 02:25:46;;;;;;;1999.90;999.90;;;;;;;1.45;100.00;98788.59;5071402;28;20027;-76
2023/02/03 02:28:33;;;;;;;1999.90;999.90;;;;;;;1.35;100.00;98800.88;5071221;28;20039;-79
2023/02/03 02:31:07;;;;;;;1999.90;999.90;;;;;;;1.19;100.00;98810.28;5071080;28;20028;-79
2023/02/03 02:33:43;;;;;;;1999.90;999.90;;;;;;;1.02;100.00;98795.66;5071189;28;20084;-77
2023/02/03 02:36:08;;;;;;;;;;;;;;;1.04;100.00;98799.78;5071702;28;20039;-77
2023/02/03 02:39:01;;;;;;;1999.90;999.90;;;;;;;0.91;100.00;98794.44;5071723;28;19912;-76
2023/02/03 02:41:35;;;;;;;1999.90;999.90;;;;;;;0.93;100.00;98797.78;5043719;28;20047;-76
2023/02/03 02:44:13;;;;;;;1999.90;999.90;;;;;;;0.93;100.00;98791.56;5071166;28;20123;-76
2023/02/03 02:46:45;;;;;;;1999.90;999.90;;;;;;;0.85;100.00;98803.38;5071125;28;20028;-78
2023/02/03 02:49:47;;;;;;;1999.90;999.90;;;;;;;0.79;100.00;98806.91;5074104;28;20028;-78
2023/02/03 02:52:15;;;;;;;1999.90;999.90;;;;;;;0.85;100.00;98810.63;5069228;28;20111;-77
2023/02/03 02:54:46;;;;;;;1999.90;999.90;;;;;;;0.68;100.00;98818.34;5076134;28;20038;-77
2023/02/03 02:57:15;;;;;;;1999.90;999.90;;;;;;;0.57;100.00;98804.69;5090612;28;20040;-76
2023/02/03 02:59:41;;;;;;;1999.90;999.90;;;;;;;0.68;100.00;98831.81;5089276;28;20208;-76
2023/02/03 03:02:09;;;;;;;1999.90;999.90;;;;;;;0.65;100.00;98843.00;5089258;28;20123;-77
2023/02/03 03:04:35;;;;;;;1999.90;999.90;;;;;;;0.45;100.00;98840.31;5092037;28;20024;-78
2023/02/03 03:07:10;;;;;;;1999.90;999.90;;;;;;;0.45;100.00;98845.72;5084066;28;20066;-81
2023/02/03 03:09:43;;;;;;;1999.90;999.90;;;;;;;0.50;100.00;98851.28;5070620;28;20409;-82
2023/02/03 03:12:18;;;;;;;1999.90;999.90;;;;;;;0.42;100.00;98853.38;5070690;28;20020;-81
2023/02/03 03:14:49;;;;;;;1999.90;999.90;;;;;;;0.33;100.00;98852.75;5070584;28;20550;-77
2023/02/03 03:17:24;;;;;;;1999.90;999.90;;;;;;;0.35;100.00;98868.69;5070437;28;20036;-80
2023/02/03 03:19:55;;;;;;;1999.90;999.90;;;;;;;0.36;100.00;98871.19;5070459;28;20035;-80
2023/02/03 03:22:27;;;;;;;1999.90;999.90;;;;;;;0.34;100.00;98867.88;5070401;28;20044;-77
2023/02/03 03:25:17;;;;;;;1999.90;999.90;;;;;;;0.31;100.00;98872.84;5070580;28;20066;-78
2023/02/03 03:27:50;;;;;;;1999.90;999.90;;;;;;;0.25;100.00;98866.41;5070198;28;20067;-78
2023/02/03 03:30:34;;;;;;;1999.90;999.90;;;;;;;0.16;100.00;98867.66;5070125;28;20385;-79
2023/02/03 03:33:01;;;;;;;1999.90;999.90;;;;;;;0.21;100.00;98856.28;5070782;28;20059;-82
2023/02/03 03:35:35;;;;;;;1999.90;999.90;;;;;;;0.17;100.00;98860.41;5071136;28;20021;-82
2023/02/03 03:38:32;;;;;;;1999.90;999.90;;;;;;;0.16;100.00;98858.78;5072604;28;20036;-82
2023/02/03 03:41:06;;;;;;;1999.90;999.90;;;;;;;0.21;100.00;98857.13;5069887;28;20562;-82
2023/02/03 03:43:38;;;;;;;1999.90;999.90;;;;;;;0.05;100.00;98846.75;5071628;28;20036;-82
2023/02/03 03:46:12;;;;;;;1999.90;999.90;;;;;;;0.12;100.00;98852.16;5078766;28;20025;-81
2023/02/03 03:49:01;;;;;;;1999.90;999.90;;;;;;;0.13;100.00;98838.47;5086474;28;20705;-83
2023/02/03 03:51:29;;;;;;;1999.90;999.90;;;;;;;0.18;100.00;98836.00;5091145;28;20028;-80
2023/02/03 03:53:59;;;;;;;1999.90;999.90;;;;;;;0.36;100.00;98835.38;5091035;28;20115;-79
2023/02/03 03:56:30;;;;;;;1999.90;999.90;;;;;;;0.25;100.00;98830.63;5090569;28;20024;-81
2023/02/03 03:58:59;;;;;;;1999.90;999.90;;;;;;;0.04;100.00;98833.50;5090402;28;20464;-83
2023/02/03 04:01:25;;;;;;;1999.90;999.90;;;;;;;-0.02;100.00;98844.06;5090494;28;20020;-82
2023/02/03 04:04:04;;;;;;;1999.90;999.90;;;;;;;0.04;100.00;98849.63;5090716;28;20019;-81
2023/02/03 04:06:30;;;;;;;1999.90;999.90;;;;;;;0.15;100.00;98852.56;5091064;28;20024;-81
2023/02/03 04:08:55;;;;;;;1999.90;999.90;;;;;;;0.14;100.00;98852.75;5102610;28;20032;-80
2023/02/03 04:14:04;;;;;;;1999.90;999.90;;;;;;;0.28;100.00;98862.50;5076125;28;20393;-81
2023/02/03 04:16:30;;;;;;;1999.90;999.90;;;;;;;0.23;100.00;98846.97;5070429;28;20065;-82
2023/02/03 04:18:55;;;;;;;1999.90;999.90;;;;;;;0.38;100.00;98844.88;5070865;28;20050;-80
2023/02/03 04:21:20;;;;;;;1999.90;999.90;;;;;;;0.26;100.00;98843.84;5072068;28;20051;-82
2023/02/03 04:23:46;;;;;;;1999.90;999.90;;;;;;;0.22;100.00;98842.59;5073802;28;20032;-80
2023/02/03 04:26:11;;;;;;;1999.90;999.90;;;;;;;0.19;100.00;98834.16;5073913;28;20092;-84
2023/02/03 04:28:37;;;;;;;1999.90;999.90;;;;;;;0.23;100.00;98838.91;5074348;28;20078;-81
2023/02/03 04:31:02;;;;;;;1999.90;999.90;;;;;;;0.26;100.00;98837.66;5074328;28;20103;-82
2023/02/03 04:33:27;;;;;;;1999.90;999.90;;;;;;;0.20;100.00;98833.94;5074222;28;20016;-80
2023/02/03 04:35:53;;;;;;;1999.90;999.90;;;;;;;0.11;100.00;98845.09;5072719;28;20024;-81
2023/02/03 04:38:18;;;;;;;1999.90;999.90;;;;;;;-0.03;100.00;98838.88;5073891;28;20009;-81
2023/02/03 04:40:45;;;;;;;1999.90;999.90;;;;;;;-0.12;100.00;98826.69;5073629;28;20485;-80
2023/02/03 04:43:11;;;;;;;1999.90;999.90;;;;;;;-0.12;100.00;98824.81;5073929;28;20050;-82
2023/02/03 04:45:37;;;;;;;1999.90;999.90;;;;;;;-0.03;100.00;98822.75;5074188;28;20024;-83
2023/02/03 04:48:03;;;;;;;1999.90;999.90;;;;;;;-0.23;100.00;98809.31;5075300;28;20088;-82
2023/02/03 04:50:29;;;;;;;1999.90;999.90;;;;;;;-0.12;100.00;98821.28;5074977;28;20028;-80
2023/02/03 04:52:57;;;;;;;1999.90;999.90;;;;;;;-0.12;100.00;98818.59;5075392;28;20024;-82
2023/02/03 04:55:23;;;;;;;1999.90;999.90;;;;;;;-0.20;100.00;98819.66;5075415;28;20048;-82
2023/02/03 04:57:48;;;;;;;1999.90;999.90;;;;;;;-0.32;100.00;98802.47;5074134;28;20461;-83
2023/02/03 05:00:14;;;;;;;1999.90;999.90;;;;;;;-0.21;100.00;98809.09;5073534;28;20032;-83
2023/02/03 05:02:39;;;;;;;1999.90;999.90;;;;;;;-0.29;100.00;98804.75;5075188;28;20024;-81
2023/02/03 05:05:05;;;;;;;1999.90;999.90;;;;;;;-0.33;100.00;98808.88;5074826;28;20575;-81
2023/02/03 05:07:30;;;;;;;1999.90;999.90;;;;;;;-0.31;100.00;98797.91;5075753;28;20027;-82
2023/02/03 05:09:56;;;;;;;1999.90;999.90;;;;;;;-0.22;100.00;98800.19;5077217;28;20519;-83
2023/02/03 05:12:21;;;;;;;1999.90;999.90;;;;;;;-0.22;100.00;98784.06;5078405;28;20025;-83
2023/02/03 05:14:46;;;;;;;1999.90;999.90;;;;;;;-0.06;100.00;98801.66;5078936;28;20099;-84
2023/02/03 05:17:12;;;;;;;1999.90;999.90;;;;;;;0.06;100.00;98800.03;5076466;28;20082;-81
2023/02/03 05:19:37;;;;;;;1999.90;999.90;;;;;;;0.07;100.00;98814.28;5077080;28;20090;-84
2023/02/03 05:22:03;;;;;;;1999.90;999.90;;;;;;;-0.13;100.00;98812.44;5077246;28;20035;-80
2023/02/03 05:24:28;;;;;;;1999.90;999.90;;;;;;;-0.11;100.00;98823.78;5077826;28;20028;-82
2023/02/03 05:26:54;;;;;;;1999.90;999.90;;;;;;;-0.15;100.00;98816.34;5073144;28;20024;-84
2023/02/03 05:29:19;;;;;;;1999.90;999.90;;;;;;;-0.21;100.00;98811.78;5074927;28;20049;-82
2023/02/03 05:31:45;;;;;;;1999.90;999.90;;;;;;;-0.27;100.00;98808.06;5073383;28;20028;-81
2023/02/03 05:34:10;;;;;;;1999.90;999.90;;;;;;;-0.29;100.00;98810.13;5075026;28;20031;-81
2023/02/03 05:36:35;;;;;;;1999.90;999.90;;;;;;;-0.30;100.00;98800.41;5075316;28;20461;-82
2023/02/03 05:39:01;;;;;;;1999.90;999.90;;;;;;;-0.34;100.00;98799.16;5074874;28;20378;-84
2023/02/03 05:44:10;;;;;;;1999.90;999.90;;;;;;;-0.46;100.00;98798.09;5074991;28;20027;-84
2023/02/03 05:46:35;;;;;;;1999.90;999.90;;;;;;;-0.51;100.00;98797.91;5074674;28;20021;-80
2023/02/03 05:49:01;;;;;;;1999.90;999.90;;;;;;;-0.45;100.00;98812.38;5073814;28;20521;-83
2023/02/03 05:51:27;;;;;;;1999.90;999.90;;;;;;;-0.51;100.00;98813.19;5077040;28;20424;-75
2023/02/03 05:53:52;;;;;;;1999.90;999.90;;;;;;;-0.53;100.00;98813.38;5092813;28;20024;-76
2023/02/03 05:56:18;;;;;;;1999.90;999.90;;;;;;;-0.51;100.00;98807.81;5094194;28;20060;-76
2023/02/03 05:58:43;;;;;;;1999.90;999.90;;;;;;;-0.57;100.00;98790.66;5083180;28;20469;-76
2023/02/03 06:01:10;;;;;;;1999.90;999.90;;;;;;;-0.64;100.00;98779.91;5076972;28;20048;-77
2023/02/03 06:03:36;;;;;;;1999.90;999.90;;;;;;;-0.57;100.00;98783.44;5069083;28;20029;-80
2023/02/03 06:06:01;;;;;;;1999.90;999.90;;;;;;;-0.45;100.00;98796.25;5070060;28;20025;-80
2023/02/03 06:08:27;;;;;;;1999.90;999.90;;;;;;;-0.47;100.00;98812.56;5072238;28;20054;-78
2023/02/03 06:10:57;;;;;;;1999.90;999.90;;;;;;;-0.52;100.00;98808.84;5089672;28;20032;-78
2023/02/03 06:13:23;;;;;;;1999.90;999.90;;;;;;;-0.41;100.00;98814.47;5091724;28;20036;-78
2023/02/03 06:15:49;;;;;;;1999.90;999.90;;;;;;;-0.48;100.00;98819.00;5083513;28;20107;-78
2023/02/03 06:18:14;;;;;;;1999.90;999.90;;;;;;;-0.59;100.00;98812.34;5093164;28;20051;-75
2023/02/03 06:20:39;;;;;;;1999.90;999.90;;;;;;;-0.56;100.00;98819.16;5100493;28;20111;-76
2023/02/03 06:23:05;;;;;;;1999.90;999.90;;;;;;;-0.67;100.00;98819.75;5088654;28;20028;-76
2023/02/03 06:25:33;;;;;;;1999.90;999.90;;;;;;;-0.66;100.00;98816.06;5078135;28;20473;-81
2023/02/03 06:27:59;;;;;;;1999.90;999.90;;;;;;;-0.46;100.00;98824.97;5083520;28;20032;-79
2023/02/03 06:30:24;;;;;;;1999.90;999.90;;;;;;;-0.34;100.00;98831.41;5084950;28;20035;-80
2023/02/03 06:32:49;;;;;;;1999.90;999.90;;;;;;;-0.10;100.00;98830.84;5077002;28;20035;-75
2023/02/03 06:35:16;;;;;;;1999.90;999.90;;;;;;;-0.04;100.00;98816.56;5077201;28;20122;-75
2023/02/03 06:37:41;;;;;;;1999.90;999.90;;;;;;;0.07;100.00;98798.97;5082871;28;20024;-77
2023/02/03 06:40:07;;;;;;;1999.90;999.90;;;;;;;0.15;100.00;98806.00;5088177;28;20035;-76
2023/02/03 06:42:33;;;;;;;1999.90;999.90;;;;;;;0.23;100.00;98822.75;5078835;28;20617;-78
2023/02/03 06:44:58;;;;;;;1999.90;999.90;;;;;;;0.31;100.00;98835.19;5081825;28;20052;-76
2023/02/03 06:47:23;;;;;;;1999.90;999.90;;;;;;;0.29;100.00;98837.22;5089383;28;20080;-78
2023/02/03 06:49:50;;;;;;;1999.90;999.90;;;;;;;0.48;100.00;98839.06;5092348;28;20449;-80
2023/02/03 06:52:15;;;;;;;1999.90;999.90;;;;;;;0.75;100.00;98843.38;5091276;28;20024;-80
2023/02/03 06:54:41;;;;;;;1999.90;999.90;;;;;;;1.07;100.00;98845.16;5091466;28;20049;-83
2023/02/03 06:57:06;;;;;;;1999.90;999.90;;;;;;;1.28;100.00;98851.28;5088925;28;20039;-81
2023/02/03 06:59:32;;;;;;;1999.90;999.90;;;;;;;1.12;100.00;98857.16;5073444;28;20131;-81
2023/02/03 07:01:57;;;;;;;1999.90;999.90;;;;;;;0.90;100.00;98846.66;5095059;28;20472;-85
2023/02/03 07:04:22;;;;;;;1999.90;999.90;;;;;;;0.95;100.00;98846.84;5084730;28;20109;-81
2023/02/03 07:06:48;;;;;;;1999.90;999.90;;;;;;;0.57;100.00;98810.91;5092191;28;20012;-82
2023/02/03 07:09:13;;;;;;;1999.90;999.90;;;;;;;0.47;100.00;98840.13;5092134;28;20484;-85
2023/02/03 07:11:40;;;;;;;1999.90;999.90;;;;;;;0.34;100.00;98834.75;5089234;28;20024;-83
2023/02/03 07:14:06;;;;;;;1999.90;999.90;;;;;;;0.42;100.00;98839.91;5092328;28;20041;-83
2023/02/03 07:16:33;;;;;;;1999.90;999.90;;;;;;;0.30;100.00;98831.66;5094189;28;20053;-84
2023/02/03 07:18:58;;;;;;;1999.90;999.90;;;;;;;0.40;100.00;98839.31;5094412;28;20027;-82
2023/02/03 07:21:24;;;;;;;1999.90;999.90;;;;;;;0.87;100.00;98839.00;5094181;28;20024;-86
2023/02/03 07:23:49;;;;;;;1999.90;999.90;;;;;;;1.16;100.00;98836.84;5074775;28;20032;-80
2023/02/03 07:26:16;;;;;;;1999.90;999.90;;;;;;;1.38;100.00;98841.69;5073265;28;20081;-81
2023/02/03 07:28:41;;;;;;;1999.90;999.90;;;;;;;1.49;100.00;98827.56;5073241;28;20028;-81
2023/02/03 07:31:09;;;;;;;1999.90;999.90;;;;;;;1.56;100.00;98827.53;5073731;28;20388;-76
2023/02/03 07:33:35;;;;;;;1999.90;999.90;;;;;;;1.94;100.00;98809.41;5070606;28;20025;-81
2023/02/03 07:36:02;;;;;;;1999.90;999.90;;;;;;;2.74;100.00;98820.31;5095709;28;20033;-79
2023/02/03 07:38:28;;;;;;;1999.90;999.90;;;;;;;3.58;100.00;98814.94;5071436;28;20107;-79
2023/02/03 07:40:53;;;;;;;1999.90;999.90;;;;;;;4.14;100.00;98828.88;5069598;28;20127;-82
2023/02/03 07:43:19;;;;;;;1999.90;999.90;;;;;;;4.57;100.00;98841.28;5070659;28;20036;-76
2023/02/03 07:45:45;;;;;;;1999.90;999.90;;;;;;;5.02;100.00;98839.63;5069624;28;20033;-77
2023/02/03 07:48:10;;;;;;;1999.90;999.90;;;;;;;5.65;100.00;98828.72;5069585;28;20576;-81
2023/02/03 07:50:36;;;;;;;1999.90;999.90;;;;;;;6.41;100.00;98855.41;5069701;28;20033;-82
2023/02/03 07:53:02;;;;;;;1999.90;999.90;;;;;;;7.15;100.00;98839.66;5081326;28;20403;-79
2023/02/03 07:55:28;;;;;;;1999.90;999.90;;;;;;;8.70;95.38;98843.53;5089649;28;20688;-79
2023/02/03 07:57:55;;;;;;;1999.90;999.90;;;;;;;8.97;89.64;98838.81;5093843;28;20110;-82
2023/02/03 08:00:20;;;;;;;1999.90;999.90;;;;;;;8.55;88.45;98828.69;5077611;28;20035;-81
2023/02/03 08:02:46;;;;;;;1999.90;999.90;;;;;;;9.23;86.34;98837.88;5077846;28;20453;-85
2023/02/03 08:05:15;;;;;;;1999.90;999.90;;;;;;;8.55;88.01;98836.84;5078228;28;20036;-86
2023/02/03 08:07:41;;;;;;;1999.90;999.90;;;;;;;9.38;84.72;98831.66;5078048;28;20107;-84
2023/02/03 08:10:07;;;;;;;1999.90;999.90;;;;;;;10.37;78.48;98829.50;5078709;28;20040;-89
2023/02/03 08:12:33;;;;;;;1999.90;999.90;;;;;;;8.44;81.88;98848.78;5080287;28;20082;-86
2023/02/03 08:14:58;;;;;;;1999.90;999.90;;;;;;;9.32;78.77;98849.94;5077557;28;20009;-87
2023/02/03 08:17:24;;;;;;;1999.90;999.90;;;;;;;10.22;74.22;98851.38;5079628;28;20692;-90
2023/02/03 08:19:49;;;;;;;1999.90;999.90;;;;;;;10.65;70.16;98830.91;5078382;28;20120;-87
2023/02/03 08:22:15;;;;;;;1999.90;999.90;;;;;;;11.06;69.24;98820.69;5080458;28;20031;-87
2023/02/03 08:24:47;;;;;;;1999.90;999.90;;;;;;;10.73;69.10;98808.47;5074901;28;20049;-87
2023/02/03 08:27:17;;;;;;;1999.90;999.90;;;;;;;11.96;64.77;98811.38;5085153;28;20013;-81
2023/02/03 08:29:44;;;;;;;1999.90;999.90;;;;;;;12.23;62.91;98802.69;5086312;28;20079;-85
2023/02/03 08:32:12;;;;;;;1999.90;999.90;;;;;;;12.25;61.86;98800.47;5080409;28;20043;-84
2023/02/03 08:34:39;;;;;;;1999.90;999.90;;;;;;;13.05;60.78;98804.44;5079433;28;20382;-89
2023/02/03 08:37:04;;;;;;;1999.90;999.90;;;;;;;12.81;59.67;98801.63;5080063;28;20041;-89
2023/02/03 08:39:31;;;;;;;1999.90;999.90;;;;;;;13.56;57.74;98799.22;5078678;28;20104;-87
2023/02/03 08:41:56;;;;;;;1999.90;999.90;;;;;;;13.38;57.81;98797.22;5078116;28;20024;-88
2023/02/03 08:44:22;;;;;;;1999.90;999.90;;;;;;;13.09;58.56;98807.47;5080264;28;20381;-88
2023/02/03 08:46:53;;;;;;;1999.90;999.90;;;;;;;14.01;56.30;98810.72;5081207;28;20029;-80
2023/02/03 08:49:19;;;;;;;1999.90;999.90;;;;;;;15.19;52.48;98804.66;5080657;28;20032;-88
2023/02/03 08:51:46;;;;;;;1999.90;999.90;;;;;;;15.43;51.38;98799.78;5081036;28;20024;-85
2023/02/03 08:54:12;;;;;;;1999.90;999.90;;;;;;;14.72;52.26;98800.25;5091696;28;20024;-85
2023/02/03 08:56:38;;;;;;;1999.90;999.90;;;;;;;14.47;53.16;98800.72;5100920;28;20488;-88
2023/02/03 08:59:03;;;;;;;1999.90;999.90;;;;;;;15.35;51.38;98796.91;5099785;28;20039;-87
2023/02/03 09:01:29;;;;;;;1999.90;999.90;;;;;;;16.11;48.41;98809.13;5092564;28;20028;-85
2023/02/03 09:03:54;;;;;;;1999.90;999.90;;;;;;;15.78;48.92;98822.28;5078457;28;20078;-85
2023/02/03 09:06:21;;;;;;;1999.90;999.90;;;;;;;15.74;47.75;98807.47;5077121;28;20048;-82
2023/02/03 09:08:47;;;;;;;1999.90;999.90;;;;;;;15.14;50.15;98806.69;5076561;28;20123;-88
2023/02/03 09:11:15;;;;;;;1999.90;999.90;;;;;;;15.05;50.61;98801.06;5079395;28;20271;-85
2023/02/03 09:13:44;;;;;;;1999.90;999.90;;;;;;;14.85;50.37;98798.66;5078999;28;20495;-85
2023/02/03 09:16:11;;;;;;;1999.90;999.90;;;;;;;13.66;54.95;98793.56;5078712;28;20393;-86
2023/02/03 09:18:36;;;;;;;1999.90;999.90;;;;;;;14.48;53.02;98785.81;5096898;28;20056;-88
2023/02/03 09:21:03;;;;;;;1999.90;999.90;;;;;;;13.63;54.95;98799.66;5100417;28;20035;-89
2023/02/03 09:23:28;;;;;;;1999.90;999.90;;;;;;;13.98;53.25;98806.63;5102630;28;20040;-86
2023/02/03 09:25:54;;;;;;;1999.90;999.90;;;;;;;13.59;54.25;98812.38;5098672;28;20377;-87
2023/02/03 09:28:19;;;;;;;1999.90;999.90;;;;;;;12.77;57.48;98797.84;5098423;28;20111;-85
2023/02/03 09:30:46;;;;;;;1999.90;999.90;;;;;;;13.92;54.20;98797.63;5092999;28;20036;-87
2023/02/03 09:33:11;;;;;;;1999.90;999.90;;;;;;;13.97;53.97;98796.72;5101211;28;20060;-85
2023/02/03 09:35:37;;;;;;;1999.90;999.90;;;;;;;14.58;52.10;98793.91;5100844;28;20024;-86
2023/02/03 09:38:03;;;;;;;1999.90;999.90;;;;;;;14.75;51.13;98794.19;5098454;28;20483;-86
2023/02/03 09:40:38;;;;;;;1999.90;999.90;;;;;;;14.53;52.18;98794.00;5097130;28;20039;-89
2023/02/03 09:43:27;;;;;;;1999.90;999.90;;;;;;;15.36;49.52;98787.53;5099254;28;20541;-81
2023/02/03 09:45:52;;;;;;;1999.90;999.90;;;;;;;15.13;49.13;98783.03;5098405;28;20036;-85
2023/02/03 09:48:23;;;;;;;1999.90;999.90;;;;;;;14.93;50.21;98778.72;5095401;28;20092;-82
2023/02/03 09:50:50;;;;;;;1999.90;999.90;;;;;;;15.78;48.19;98790.00;5095748;28;20058;-78
2023/02/03 09:53:32;;;;;;;1999.90;999.90;;;;;;;15.16;49.50;98777.69;5095002;28;20035;-88
2023/02/03 09:55:58;;;;;;;1999.90;999.90;;;;;;;14.86;50.61;98773.59;5097811;28;20031;-86
2023/02/03 09:58:28;;;;;;;1999.90;999.90;;;;;;;15.17;49.61;98778.53;5093103;28;20031;-84
2023/02/03 10:00:58;;;;;;;1999.90;999.90;;;;;;;15.17;49.73;98773.00;5093166;28;20035;-83
2023/02/03 10:03:58;;;;;;;1999.90;999.90;;;;;;;14.12;52.11;98763.53;5095015;28;20024;-81
2023/02/03 10:06:37;;;;;;;1999.90;999.90;;;;;;;15.59;49.16;98789.31;5094920;28;20024;-89
2023/02/03 10:09:33;;;;;;;1999.90;999.90;;;;;;;15.47;48.67;98769.66;5095351;28;20048;-84
2023/02/03 10:12:29;;;;;;;1999.90;999.90;;;;;;;14.71;50.32;98754.59;5093720;28;20044;-81
2023/02/03 10:15:01;;;;;;;1999.90;999.90;;;;;;;14.64;50.15;98759.66;5093876;28;20437;-84
2023/02/03 10:17:36;;;;;;;1999.90;999.90;;;;;;;15.16;49.13;98749.34;5092384;28;20043;-85
2023/02/03 10:20:11;;;;;;;;;;;;;;;15.16;49.13;98749.34;5093493;28;20025;-82
2023/02/03 10:22:44;;;;;;;1999.90;999.90;;;;;;;14.48;51.92;98733.50;5088543;28;19943;-81
2023/02/03 10:25:13;;;;;;;1999.90;999.90;;;;;;;12.94;54.00;98736.97;5076444;28;20054;-80
2023/02/03 10:27:40;;;;;;;1999.90;999.90;;;;;;;14.09;52.72;98722.03;5074651;28;21182;-84
2023/02/03 10:30:24;;;;;;;1999.90;999.90;;;;;;;13.22;54.47;98721.56;5073436;28;20063;-84
2023/02/03 10:32:58;;;;;;;1999.90;999.90;;;;;;;13.91;53.59;98718.97;5073720;28;20039;-81
2023/02/03 10:35:34;;;;;;;1999.90;999.90;;;;;;;14.18;51.76;98722.97;5075620;28;20084;-80
2023/02/03 10:38:00;;;;;;;1999.90;999.90;;;;;;;14.43;51.32;98730.84;5077452;28;20477;-89
2023/02/03 10:40:27;;;;;;;1999.90;999.90;;;;;;;13.77;53.61;98718.09;5074114;28;20027;-82
2023/02/03 10:45:38;;;;;;;1999.90;999.90;;;;;;;14.78;50.70;98686.16;5086339;28;20023;-87
2023/02/03 10:48:08;;;;;;;1999.90;999.90;;;;;;;13.46;53.05;98670.16;5092346;28;20028;-84
2023/02/03 10:50:35;;;;;;;1999.90;999.90;;;;;;;12.87;55.58;98663.19;5094135;28;20062;-88
2023/02/03 10:53:21;;;;;;;1999.90;999.90;;;;;;;13.92;52.97;98654.59;5092734;28;20034;-79
2023/02/03 10:56:12;;;;;;;1999.90;999.90;;;;;;;14.71;50.99;98663.69;5093700;28;20028;-86
2023/02/03 10:58:45;;;;;;;1999.90;999.90;;;;;;;14.63;51.35;98663.59;5095085;28;20504;-87
2023/02/03 11:01:13;;;;;;;1999.90;999.90;;;;;;;15.43;48.96;98658.34;5101739;28;20032;-84
2023/02/03 11:04:03;;;;;;;1999.90;999.90;;;;;;;16.31;47.21;98673.41;5103683;28;20151;-84
2023/02/03 11:06:30;;;;;;;1999.90;999.90;;;;;;;16.13;46.88;98657.84;5096554;28;20450;-87
2023/02/03 11:08:56;;;;;;;1999.90;999.90;;;;;;;15.26;48.03;98658.97;5101234;28;20086;-80